createdAt,value
2019-05-17T00:00:03.361Z,9.76
2019-05-17T00:01:03.286Z,9.84
2019-05-17T00:02:03.249Z,9.78
2019-05-17T00:03:03.203Z,9.78
2019-05-17T00:04:03.161Z,9.84
2019-05-17T00:05:03.127Z,9.91
2019-05-17T00:06:03.100Z,9.89
2019-05-17T00:07:03.041Z,9.91
2019-05-17T00:08:02.997Z,9.93
2019-05-17T00:09:02.949Z,9.90
2019-05-17T00:10:02.941Z,9.89
2019-05-17T00:11:02.898Z,9.87
2019-05-17T00:12:02.833Z,9.81
2019-05-17T00:13:02.787Z,9.74
2019-05-17T00:14:02.737Z,9.74
2019-05-17T00:15:02.715Z,9.78
2019-05-17T00:16:02.688Z,9.79
2019-05-17T00:17:02.620Z,9.79
2019-05-17T00:18:02.582Z,9.79
2019-05-17T00:19:02.534Z,9.79
2019-05-17T00:20:02.504Z,9.86
2019-05-17T00:21:02.445Z,9.84
2019-05-17T00:22:02.433Z,9.89
2019-05-17T00:23:02.363Z,9.84
2019-05-17T00:24:02.323Z,9.84
2019-05-17T00:25:02.285Z,9.93
2019-05-17T00:26:02.249Z,9.87
2019-05-17T00:27:02.203Z,9.90
2019-05-17T00:28:02.173Z,9.87
2019-05-17T00:29:02.104Z,9.87
2019-05-17T00:30:02.068Z,9.91
2019-05-17T00:31:02.031Z,9.87
2019-05-17T00:32:01.980Z,9.89
2019-05-17T00:33:01.973Z,9.81
2019-05-17T00:34:01.931Z,9.87
2019-05-17T00:35:01.865Z,9.84
2019-05-17T00:36:01.816Z,9.89
2019-05-17T00:37:01.777Z,9.86
2019-05-17T00:38:01.737Z,9.86
2019-05-17T00:39:01.725Z,9.90
2019-05-17T00:40:01.648Z,9.87
2019-05-17T00:41:01.610Z,9.83
2019-05-17T00:42:01.589Z,9.84
2019-05-17T00:43:01.516Z,9.86
2019-05-17T00:44:01.478Z,9.86
2019-05-17T00:45:01.444Z,9.79
2019-05-17T00:46:01.407Z,9.79
2019-05-17T00:47:01.371Z,9.74
2019-05-17T00:48:01.332Z,9.75
2019-05-17T00:49:01.277Z,9.83
2019-05-17T00:50:01.231Z,9.74
2019-05-17T00:51:02.410Z,9.83
2019-05-17T00:52:01.137Z,9.72
2019-05-17T00:53:01.099Z,9.76
2019-05-17T00:54:01.056Z,9.75
2019-05-17T00:55:01.012Z,9.76
2019-05-17T00:56:00.999Z,9.74
2019-05-17T00:57:00.960Z,9.75
2019-05-17T00:58:00.896Z,9.75
2019-05-17T00:59:00.848Z,9.74
2019-05-17T01:00:00.800Z,9.76
2019-05-17T01:01:00.763Z,9.79
2019-05-17T01:02:00.748Z,9.74
2019-05-17T01:03:00.680Z,9.78
2019-05-17T01:04:00.634Z,9.69
2019-05-17T01:05:00.588Z,9.72
2019-05-17T01:06:00.548Z,9.65
2019-05-17T01:07:00.528Z,9.68
2019-05-17T01:08:00.472Z,9.68
2019-05-17T01:09:03.950Z,9.61
2019-05-17T01:10:00.379Z,9.64
2019-05-17T01:11:00.338Z,9.69
2019-05-17T01:12:00.329Z,9.64
2019-05-17T01:13:00.258Z,9.69
2019-05-17T01:14:00.218Z,9.68
2019-05-17T01:15:00.172Z,9.65
2019-05-17T01:16:00.131Z,9.69
2019-05-17T01:59:57.182Z,9.60
2019-05-17T02:00:57.144Z,9.65
2019-05-17T02:01:56.543Z,9.69
2019-05-17T02:02:57.554Z,9.66
2019-05-17T02:03:57.358Z,9.68
2019-05-17T02:04:56.984Z,9.72
2019-05-17T02:05:56.671Z,9.69
2019-05-17T02:06:57.261Z,9.69
2019-05-17T02:07:56.879Z,9.78
2019-05-17T02:08:56.819Z,9.72
2019-05-17T02:09:56.866Z,9.72
2019-05-17T02:10:54.750Z,9.71
2019-05-17T02:11:57.072Z,9.60
2019-05-17T02:12:56.909Z,9.71
2019-05-17T02:13:56.189Z,9.71
2019-05-17T02:14:54.577Z,9.65
2019-05-17T02:15:56.466Z,9.58
2019-05-17T02:16:54.491Z,9.65
2019-05-17T02:17:54.432Z,9.71
2019-05-17T02:18:54.394Z,9.71
2019-05-17T02:19:54.378Z,9.75
2019-05-17T02:20:54.296Z,9.72
2019-05-17T02:21:56.865Z,9.71
2019-05-17T02:22:56.385Z,9.78
2019-05-17T02:23:54.180Z,9.65
2019-05-17T02:24:54.129Z,9.64
2019-05-17T02:25:54.113Z,9.60
2019-05-17T02:26:54.047Z,9.65
2019-05-17T02:27:54.009Z,9.61
2019-05-17T02:28:53.964Z,9.64
2019-05-17T02:29:53.922Z,9.71
2019-05-17T02:30:53.904Z,9.69
2019-05-17T02:31:53.855Z,9.65
2019-05-17T02:32:54.210Z,9.66
2019-05-17T02:33:53.750Z,9.60
2019-05-17T02:34:53.716Z,9.65
2019-05-17T02:35:53.758Z,9.68
2019-05-17T02:36:53.695Z,9.60
2019-05-17T02:37:53.661Z,9.64
2019-05-17T02:38:53.542Z,9.66
2019-05-17T02:40:02.370Z,9.65
2019-05-17T02:40:53.797Z,9.68
2019-05-17T02:41:53.557Z,9.64
2019-05-17T02:42:53.720Z,9.66
2019-05-17T02:43:53.534Z,9.66
2019-05-17T02:44:53.318Z,9.66
2019-05-17T02:45:53.241Z,9.76
2019-05-17T02:46:53.841Z,9.68
2019-05-17T02:47:53.843Z,9.68
2019-05-17T02:48:53.847Z,9.65
2019-05-17T02:49:53.104Z,9.65
2019-05-17T02:50:53.320Z,9.60
2019-05-17T02:51:53.033Z,9.74
2019-05-17T02:52:53.012Z,9.78
2019-05-17T02:53:52.904Z,9.69
2019-05-17T02:54:52.925Z,9.65
2019-05-17T02:55:53.963Z,9.76
2019-05-17T02:56:53.830Z,9.68
2019-05-17T02:57:53.092Z,9.61
2019-05-17T02:58:53.331Z,9.68
2019-05-17T02:59:52.735Z,9.60
2019-05-17T03:00:53.460Z,9.69
2019-05-17T03:01:52.875Z,9.64
2019-05-17T03:02:53.588Z,9.72
2019-05-17T03:03:53.078Z,9.68
2019-05-17T03:04:52.724Z,9.61
2019-05-17T03:05:53.571Z,9.69
2019-05-17T03:06:53.260Z,9.58
2019-05-17T03:07:52.889Z,9.66
2019-05-17T03:08:52.546Z,9.61
2019-05-17T03:09:53.433Z,9.60
2019-05-17T03:10:53.519Z,9.66
2019-05-17T03:11:56.613Z,9.68
2019-05-17T03:12:53.021Z,9.68
2019-05-17T03:13:52.619Z,9.65
2019-05-17T03:14:52.908Z,9.61
2019-05-17T03:15:52.815Z,9.64
2019-05-17T03:16:53.661Z,9.65
2019-05-17T03:17:53.648Z,9.65
2019-05-17T03:18:53.041Z,9.65
2019-05-17T03:19:52.916Z,9.69
2019-05-17T03:20:52.732Z,9.74
2019-05-17T03:21:53.536Z,9.76
2019-05-17T03:22:52.583Z,9.72
2019-05-17T03:23:53.959Z,9.72
2019-05-17T03:24:53.277Z,9.74
2019-05-17T03:25:52.456Z,9.76
2019-05-17T03:26:52.678Z,9.78
2019-05-17T03:27:53.629Z,9.76
2019-05-17T03:28:53.866Z,9.74
2019-05-17T03:29:53.792Z,9.72
2019-05-17T03:30:56.311Z,9.78
2019-05-17T03:31:59.722Z,9.66
2019-05-17T03:32:56.094Z,9.75
2019-05-17T03:33:55.839Z,9.79
2019-05-17T03:35:06.082Z,9.72
2019-05-17T03:35:56.286Z,9.79
2019-05-17T03:36:56.430Z,9.76
2019-05-17T03:37:53.219Z,9.76
2019-05-17T03:38:53.459Z,9.78
2019-05-17T03:39:53.616Z,9.68
2019-05-17T03:41:17.713Z,9.79
2019-05-17T03:41:53.492Z,9.78
2019-05-17T03:42:53.584Z,9.81
2019-05-17T03:43:53.323Z,9.75
2019-05-17T03:44:53.078Z,9.76
2019-05-17T03:45:53.354Z,9.71
2019-05-17T03:46:53.175Z,9.83
2019-05-17T03:47:53.238Z,9.79
2019-05-17T03:48:53.224Z,9.76
2019-05-17T03:49:53.100Z,9.76
2019-05-17T03:50:53.162Z,9.75
2019-05-17T03:51:52.933Z,9.81
2019-05-17T03:52:53.418Z,9.83
2019-05-17T03:53:53.163Z,9.87
2019-05-17T03:54:53.108Z,9.83
2019-05-17T03:55:53.743Z,9.84
2019-05-17T03:56:53.004Z,9.78
2019-05-17T03:57:53.196Z,9.75
2019-05-17T03:58:52.993Z,9.86
2019-05-17T03:59:52.479Z,9.76
2019-05-17T04:00:53.120Z,9.79
2019-05-17T04:01:52.692Z,9.83
2019-05-17T04:02:53.392Z,9.74
2019-05-17T04:03:52.720Z,9.86
2019-05-17T04:04:52.708Z,9.83
2019-05-17T04:05:52.647Z,9.76
2019-05-17T04:06:52.481Z,9.79
2019-05-17T04:07:53.318Z,9.84
2019-05-17T04:08:52.637Z,9.87
2019-05-17T04:09:52.975Z,9.89
2019-05-17T04:10:52.698Z,9.79
2019-05-17T04:11:49.638Z,9.89
2019-05-17T04:12:52.722Z,9.83
2019-05-17T04:13:49.535Z,9.84
2019-05-17T04:14:49.495Z,9.87
2019-05-17T04:15:52.766Z,9.84
2019-05-17T04:16:49.425Z,9.86
2019-05-17T04:17:52.685Z,9.81
2019-05-17T04:18:49.330Z,9.87
2019-05-17T04:19:49.278Z,9.96
2019-05-17T04:20:52.536Z,9.90
2019-05-17T04:21:49.200Z,10.02
2019-05-17T04:22:49.151Z,9.99
2019-05-17T04:23:49.139Z,10.01
2019-05-17T04:24:52.322Z,10.07
2019-05-17T04:25:49.023Z,9.97
2019-05-17T04:26:52.011Z,10.01
2019-05-17T04:27:48.943Z,9.99
2019-05-17T04:28:48.896Z,9.97
2019-05-17T04:29:48.883Z,10.08
2019-05-17T04:30:48.822Z,10.08
2019-05-17T04:31:48.776Z,10.01
2019-05-17T04:32:48.733Z,9.94
2019-05-17T04:33:48.694Z,10.12
2019-05-17T04:34:48.652Z,10.11
2019-05-17T04:35:48.631Z,10.07
2019-05-17T04:36:48.564Z,10.05
2019-05-17T04:37:48.524Z,10.09
2019-05-17T04:38:48.507Z,10.12
2019-05-17T04:39:48.440Z,10.12
2019-05-17T04:40:48.431Z,10.12
2019-05-17T04:41:51.067Z,10.12
2019-05-17T04:42:48.320Z,10.11
2019-05-17T04:43:48.266Z,10.12
2019-05-17T04:44:48.231Z,10.18
2019-05-17T04:45:48.188Z,10.14
2019-05-17T04:46:48.165Z,10.20
2019-05-17T04:47:48.100Z,10.17
2019-05-17T04:48:48.060Z,10.29
2019-05-17T04:49:48.017Z,10.15
2019-05-17T04:50:47.982Z,10.26
2019-05-17T04:51:48.008Z,10.25
2019-05-17T04:52:47.901Z,10.25
2019-05-17T04:53:47.859Z,10.30
2019-05-17T04:54:47.808Z,10.34
2019-05-17T04:55:47.769Z,10.42
2019-05-17T04:56:47.724Z,10.36
2019-05-17T04:57:47.710Z,10.38
2019-05-17T04:58:50.211Z,10.44
2019-05-17T04:59:47.609Z,10.48
2019-05-17T05:00:47.559Z,10.47
2019-05-17T05:01:47.516Z,10.53
2019-05-17T05:02:47.509Z,10.59
2019-05-17T05:03:47.438Z,10.55
2019-05-17T05:04:47.397Z,10.48
2019-05-17T05:05:47.359Z,10.55
2019-05-17T05:06:47.311Z,10.61
2019-05-17T05:07:47.273Z,10.51
2019-05-17T05:08:47.250Z,10.53
2019-05-17T05:09:47.214Z,10.63
2019-05-17T05:10:47.150Z,10.59
2019-05-17T05:11:57.064Z,10.66
2019-05-17T05:12:47.063Z,10.59
2019-05-17T05:13:47.022Z,10.67
2019-05-17T05:14:46.978Z,10.63
2019-05-17T05:15:46.958Z,10.63
2019-05-17T05:16:46.896Z,10.71
2019-05-17T05:17:46.860Z,10.76
2019-05-17T05:18:46.826Z,10.82
2019-05-17T05:19:46.791Z,10.82
2019-05-17T05:20:46.724Z,10.85
2019-05-17T05:21:46.684Z,10.91
2019-05-17T05:22:46.647Z,10.92
2019-05-17T05:23:46.614Z,10.89
2019-05-17T05:24:46.587Z,10.96
2019-05-17T05:25:46.524Z,10.84
2019-05-17T05:26:46.478Z,10.81
2019-05-17T05:27:46.439Z,10.82
2019-05-17T05:28:49.186Z,10.88
2019-05-17T05:29:46.376Z,10.91
2019-05-17T05:30:46.318Z,10.81
2019-05-17T05:31:46.299Z,10.88
2019-05-17T05:32:46.228Z,10.89
2019-05-17T05:33:46.191Z,10.99
2019-05-17T05:34:46.525Z,10.92
2019-05-17T05:35:46.114Z,10.88
2019-05-17T05:36:46.108Z,10.89
2019-05-17T05:37:46.032Z,10.94
2019-05-17T05:38:45.990Z,10.85
2019-05-17T05:39:45.942Z,10.96
2019-05-17T05:40:45.898Z,10.97
2019-05-17T05:41:45.880Z,10.99
2019-05-17T05:42:45.822Z,11.06
2019-05-17T05:43:45.780Z,11.04
2019-05-17T05:44:45.742Z,11.09
2019-05-17T05:45:45.727Z,11.06
2019-05-17T05:46:45.651Z,11.15
2019-05-17T05:47:45.611Z,11.22
2019-05-17T05:48:45.576Z,11.21
2019-05-17T05:49:45.539Z,11.25
2019-05-17T05:50:45.487Z,11.17
2019-05-17T05:51:45.469Z,11.02
2019-05-17T05:52:45.402Z,11.02
2019-05-17T05:53:45.370Z,10.88
2019-05-17T05:54:45.330Z,10.86
2019-05-17T05:55:45.287Z,10.86
2019-05-17T05:56:45.271Z,10.88
2019-05-17T05:57:45.205Z,10.82
2019-05-17T05:58:45.212Z,10.84
2019-05-17T05:59:45.122Z,10.86
2019-05-17T06:00:45.080Z,10.89
2019-05-17T06:01:45.036Z,10.89
2019-05-17T06:02:45.004Z,11.00
2019-05-17T06:03:44.980Z,11.11
2019-05-17T06:04:44.914Z,11.24
2019-05-17T06:05:44.873Z,11.32
2019-05-17T06:06:44.837Z,11.40
2019-05-17T06:07:44.795Z,11.47
2019-05-17T06:08:44.785Z,11.32
2019-05-17T06:09:44.716Z,11.35
2019-05-17T06:10:44.663Z,11.32
2019-05-17T06:11:44.623Z,11.37
2019-05-17T06:12:44.581Z,11.37
2019-05-17T06:13:44.857Z,11.39
2019-05-17T06:14:44.558Z,11.36
2019-05-17T06:15:44.469Z,11.39
2019-05-17T06:16:47.271Z,11.44
2019-05-17T06:17:44.385Z,11.39
2019-05-17T06:18:44.340Z,11.55
2019-05-17T06:19:44.320Z,11.70
2019-05-17T06:20:44.260Z,11.51
2019-05-17T06:21:44.219Z,11.57
2019-05-17T06:22:44.171Z,11.65
2019-05-17T06:23:44.155Z,11.60
2019-05-17T06:24:44.089Z,11.55
2019-05-17T06:25:44.055Z,11.64
2019-05-17T06:26:44.047Z,11.78
2019-05-17T06:27:43.974Z,11.61
2019-05-17T06:28:43.929Z,11.76
2019-05-17T06:29:43.894Z,11.78
2019-05-17T06:30:43.934Z,11.57
2019-05-17T06:31:43.801Z,11.64
2019-05-17T06:32:43.794Z,11.61
2019-05-17T06:33:43.723Z,11.58
2019-05-17T06:34:43.709Z,11.55
2019-05-17T06:35:43.646Z,11.73
2019-05-17T06:36:43.597Z,11.78
2019-05-17T06:37:43.587Z,11.94
2019-05-17T06:38:43.523Z,11.98
2019-05-17T06:39:43.483Z,12.14
2019-05-17T06:40:43.438Z,12.01
2019-05-17T06:41:43.406Z,12.01
2019-05-17T06:42:45.429Z,11.90
2019-05-17T06:43:43.337Z,11.88
2019-05-17T06:44:43.275Z,11.88
2019-05-17T06:45:43.266Z,12.17
2019-05-17T06:46:43.197Z,12.10
2019-05-17T06:47:43.163Z,12.16
2019-05-17T06:48:43.120Z,12.16
2019-05-17T06:49:43.077Z,12.21
2019-05-17T06:50:43.390Z,12.01
2019-05-17T06:51:43.010Z,12.04
2019-05-17T06:52:43.742Z,12.16
2019-05-17T06:53:43.588Z,12.02
2019-05-17T06:54:42.866Z,12.05
2019-05-17T06:55:42.885Z,11.94
2019-05-17T06:56:42.808Z,11.88
2019-05-17T06:57:43.457Z,11.99
2019-05-17T06:58:42.710Z,11.96
2019-05-17T06:59:42.671Z,11.96
2019-05-17T07:00:42.654Z,11.90
2019-05-17T07:01:42.587Z,11.98
2019-05-17T07:02:42.543Z,12.07
2019-05-17T07:03:42.502Z,11.96
2019-05-17T07:04:42.487Z,11.91
2019-05-17T07:05:42.422Z,11.85
2019-05-17T07:06:42.388Z,11.75
2019-05-17T07:07:42.343Z,11.86
2019-05-17T07:08:42.298Z,11.96
2019-05-17T07:09:42.258Z,12.04
2019-05-17T07:10:42.245Z,12.13
2019-05-17T07:11:42.215Z,12.13
2019-05-17T07:12:54.980Z,12.13
2019-05-17T07:13:42.103Z,12.13
2019-05-17T07:14:42.072Z,12.34
2019-05-17T07:15:47.470Z,12.28
2019-05-17T07:16:41.998Z,12.35
2019-05-17T07:17:41.930Z,12.41
2019-05-17T07:18:41.895Z,12.32
2019-05-17T07:19:41.859Z,12.16
2019-05-17T07:20:41.821Z,12.23
2019-05-17T07:21:41.776Z,12.41
2019-05-17T07:22:41.755Z,12.37
2019-05-17T07:23:41.688Z,12.56
2019-05-17T07:24:41.651Z,12.67
2019-05-17T07:25:41.612Z,12.62
2019-05-17T07:26:41.566Z,12.41
2019-05-17T07:27:45.572Z,12.34
2019-05-17T07:28:41.509Z,12.39
2019-05-17T07:29:41.450Z,12.50
2019-05-17T07:30:41.416Z,12.46
2019-05-17T07:31:41.367Z,12.42
2019-05-17T07:32:41.334Z,12.39
2019-05-17T07:33:41.364Z,12.46
2019-05-17T07:34:41.258Z,12.39
2019-05-17T07:35:41.202Z,12.29
2019-05-17T07:36:41.159Z,12.29
2019-05-17T07:37:41.125Z,12.42
2019-05-17T07:38:41.088Z,12.29
2019-05-17T07:39:42.370Z,12.32
2019-05-17T07:40:41.018Z,12.32
2019-05-17T07:41:40.957Z,12.39
2019-05-17T07:42:41.031Z,12.19
2019-05-17T07:43:40.882Z,12.21
2019-05-17T07:44:43.611Z,12.16
2019-05-17T07:45:40.838Z,12.04
2019-05-17T07:46:40.754Z,12.12
2019-05-17T07:47:40.835Z,12.29
2019-05-17T07:48:40.718Z,12.31
2019-05-17T07:49:40.634Z,12.42
2019-05-17T07:50:40.603Z,12.53
2019-05-17T07:51:40.581Z,12.54
2019-05-17T07:52:40.514Z,12.42
2019-05-17T07:53:40.499Z,12.41
2019-05-17T07:54:40.437Z,12.54
2019-05-17T07:55:40.392Z,12.42
2019-05-17T07:56:40.415Z,12.56
2019-05-17T07:57:40.993Z,12.57
2019-05-17T07:58:40.536Z,12.47
2019-05-17T07:59:40.252Z,12.29
2019-05-17T08:00:40.440Z,12.29
2019-05-17T08:01:41.272Z,12.41
2019-05-17T08:02:40.507Z,12.53
2019-05-17T08:03:40.532Z,12.53
2019-05-17T08:04:40.707Z,12.52
2019-05-17T08:05:40.506Z,12.39
2019-05-17T08:06:40.384Z,12.53
2019-05-17T08:07:40.754Z,12.49
2019-05-17T08:08:40.985Z,12.52
2019-05-17T08:09:40.395Z,12.65
2019-05-17T08:10:40.905Z,12.53
2019-05-17T08:11:39.778Z,12.60
2019-05-17T08:12:40.622Z,12.62
2019-05-17T08:13:39.935Z,12.53
2019-05-17T08:14:40.014Z,12.38
2019-05-17T08:15:39.938Z,12.28
2019-05-17T08:16:39.555Z,12.41
2019-05-17T08:17:39.790Z,12.41
2019-05-17T08:18:40.232Z,12.42
2019-05-17T08:19:40.290Z,12.47
2019-05-17T08:20:40.079Z,12.64
2019-05-17T08:21:39.906Z,12.56
2019-05-17T08:22:40.106Z,12.59
2019-05-17T08:23:40.091Z,12.68
2019-05-17T08:24:39.949Z,12.72
2019-05-17T08:25:51.997Z,12.53
2019-05-17T08:26:40.447Z,12.65
2019-05-17T08:27:40.450Z,12.77
2019-05-17T08:28:40.419Z,12.87
2019-05-17T08:29:40.396Z,12.90
2019-05-17T08:30:40.974Z,12.93
2019-05-17T08:31:40.484Z,13.03
2019-05-17T08:32:40.077Z,13.01
2019-05-17T08:33:40.610Z,13.03
2019-05-17T08:34:40.110Z,12.93
2019-05-17T08:35:40.051Z,12.90
2019-05-17T08:36:40.515Z,13.07
2019-05-17T08:37:41.854Z,13.05
2019-05-17T08:38:39.375Z,13.07
2019-05-17T08:39:39.966Z,13.08
2019-05-17T08:40:40.545Z,12.92
2019-05-17T08:41:40.484Z,12.86
2019-05-17T08:42:40.609Z,12.89
2019-05-17T08:43:46.220Z,12.86
2019-05-17T08:44:39.368Z,12.86
2019-05-17T08:45:40.687Z,12.83
2019-05-17T08:46:39.530Z,13.00
2019-05-17T08:47:39.602Z,13.01
2019-05-17T08:48:40.144Z,13.00
2019-05-17T08:49:40.289Z,12.87
2019-05-17T08:50:40.242Z,13.05
2019-05-17T08:51:39.757Z,13.19
2019-05-17T08:52:40.215Z,13.08
2019-05-17T08:53:39.915Z,13.12
2019-05-17T08:54:42.565Z,13.07
2019-05-17T08:55:40.546Z,13.20
2019-05-17T08:56:40.206Z,13.14
2019-05-17T08:57:39.975Z,13.15
2019-05-17T08:58:40.146Z,13.28
2019-05-17T08:59:40.225Z,13.23
2019-05-17T09:00:40.602Z,13.32
2019-05-17T09:01:39.195Z,13.15
2019-05-17T09:02:38.259Z,13.03
2019-05-17T09:03:37.663Z,12.95
2019-05-17T09:04:37.631Z,12.97
2019-05-17T09:05:37.584Z,13.05
2019-05-17T09:06:39.581Z,13.07
2019-05-17T09:07:39.844Z,13.00
2019-05-17T09:08:37.492Z,13.01
2019-05-17T09:09:39.437Z,12.87
2019-05-17T09:10:37.613Z,13.01
2019-05-17T09:11:39.434Z,12.97
2019-05-17T09:12:37.328Z,13.10
2019-05-17T09:13:37.270Z,13.15
2019-05-17T09:14:37.255Z,13.15
2019-05-17T09:15:37.196Z,13.22
2019-05-17T09:16:39.911Z,13.14
2019-05-17T09:17:39.366Z,13.14
2019-05-17T09:18:39.279Z,13.15
2019-05-17T09:19:39.367Z,13.17
2019-05-17T09:20:36.997Z,13.04
2019-05-17T09:21:36.957Z,13.23
2019-05-17T09:22:39.394Z,13.25
2019-05-17T09:23:36.873Z,13.33
2019-05-17T09:24:36.832Z,13.19
2019-05-17T09:25:36.813Z,13.20
2019-05-17T09:26:36.761Z,13.19
2019-05-17T09:27:36.775Z,13.17
2019-05-17T09:28:36.680Z,13.03
2019-05-17T09:29:36.639Z,13.14
2019-05-17T09:30:36.617Z,13.03
2019-05-17T09:31:36.553Z,13.00
2019-05-17T09:32:36.520Z,12.90
2019-05-17T09:33:36.479Z,13.00
2019-05-17T09:34:36.439Z,13.10
2019-05-17T09:35:36.402Z,13.10
2019-05-17T09:36:36.376Z,12.92
2019-05-17T09:37:36.317Z,12.82
2019-05-17T09:38:36.296Z,12.83
2019-05-17T09:39:36.240Z,12.85
2019-05-17T09:40:36.214Z,12.83
2019-05-17T09:41:36.275Z,12.89
2019-05-17T09:42:36.249Z,12.96
2019-05-17T09:43:36.077Z,12.90
2019-05-17T09:44:36.108Z,12.97
2019-05-17T09:45:36.013Z,13.01
2019-05-17T09:46:35.962Z,13.01
2019-05-17T09:47:35.949Z,12.90
2019-05-17T09:48:36.070Z,13.05
2019-05-17T09:49:35.836Z,13.19
2019-05-17T09:50:35.804Z,13.36
2019-05-17T09:51:35.857Z,13.42
2019-05-17T09:52:35.723Z,13.44
2019-05-17T09:53:35.704Z,13.36
2019-05-17T09:54:42.355Z,13.49
2019-05-17T09:55:35.600Z,13.59
2019-05-17T09:56:35.558Z,13.63
2019-05-17T09:57:35.518Z,13.69
2019-05-17T09:58:35.505Z,13.59
2019-05-17T09:59:35.510Z,13.69
2019-05-17T10:00:35.411Z,13.59
2019-05-17T10:01:35.378Z,13.57
2019-05-17T10:02:35.321Z,13.48
2019-05-17T10:03:35.276Z,13.48
2019-05-17T10:04:35.269Z,13.54
2019-05-17T10:05:35.204Z,13.46
2019-05-17T10:06:35.181Z,13.46
2019-05-17T10:07:35.123Z,13.42
2019-05-17T10:08:35.218Z,13.51
2019-05-17T10:09:35.070Z,13.38
2019-05-17T10:10:35.010Z,13.39
2019-05-17T10:11:34.971Z,13.39
2019-05-17T10:12:35.071Z,13.49
2019-05-17T10:13:34.888Z,13.54
2019-05-17T10:14:34.898Z,13.49
2019-05-17T10:15:35.024Z,13.46
2019-05-17T10:16:34.761Z,13.49
2019-05-17T10:17:34.724Z,13.51
2019-05-17T10:18:34.695Z,13.41
2019-05-17T10:19:34.651Z,13.49
2019-05-17T10:20:34.627Z,13.45
2019-05-17T10:21:34.596Z,13.44
2019-05-17T10:22:34.533Z,13.32
2019-05-17T10:23:34.494Z,13.29
2019-05-17T10:24:38.973Z,13.19
2019-05-17T10:25:34.514Z,12.95
2019-05-17T10:26:34.365Z,12.72
2019-05-17T10:27:34.343Z,12.77
2019-05-17T10:28:34.284Z,12.72
2019-05-17T10:29:34.242Z,12.71
2019-05-17T10:30:34.239Z,12.72
2019-05-17T10:31:34.168Z,12.77
2019-05-17T10:32:34.153Z,12.77
2019-05-17T10:33:34.089Z,12.64
2019-05-17T10:34:34.048Z,12.56
2019-05-17T10:35:34.004Z,12.67
2019-05-17T10:36:33.987Z,12.57
2019-05-17T10:37:33.958Z,12.65
2019-05-17T10:38:33.888Z,12.65
2019-05-17T10:39:33.847Z,12.54
2019-05-17T10:40:33.800Z,12.53
2019-05-17T10:41:33.765Z,12.45
2019-05-17T10:42:33.727Z,12.29
2019-05-17T10:43:33.718Z,12.24
2019-05-17T10:44:46.322Z,12.13
2019-05-17T10:45:33.604Z,12.19
2019-05-17T10:46:33.561Z,12.13
2019-05-17T10:47:33.521Z,12.12
2019-05-17T10:48:33.479Z,12.13
2019-05-17T10:49:33.462Z,12.17
2019-05-17T10:50:33.399Z,12.27
2019-05-17T10:51:33.371Z,12.39
2019-05-17T10:52:33.315Z,12.54
2019-05-17T10:53:33.313Z,12.54
2019-05-17T10:54:33.272Z,12.82
2019-05-17T10:55:33.203Z,12.92
2019-05-17T10:56:33.161Z,13.05
2019-05-17T10:57:33.119Z,13.25
2019-05-17T10:58:33.079Z,13.29
2019-05-17T10:59:33.064Z,13.44
2019-05-17T11:00:33.047Z,13.57
2019-05-17T11:01:32.979Z,13.66
2019-05-17T11:02:32.916Z,13.89
2019-05-17T11:03:32.881Z,13.78
2019-05-17T11:04:32.837Z,13.66
2019-05-17T11:05:32.824Z,13.52
2019-05-17T11:06:32.782Z,13.30
2019-05-17T11:07:32.713Z,13.26
2019-05-17T11:08:32.680Z,13.08
2019-05-17T11:09:32.643Z,12.82
2019-05-17T11:10:32.712Z,12.85
2019-05-17T11:11:32.579Z,12.85
2019-05-17T11:12:32.513Z,12.93
2019-05-17T11:13:32.473Z,12.86
2019-05-17T11:14:32.441Z,12.78
2019-05-17T11:15:32.399Z,12.82
2019-05-17T11:16:32.364Z,12.85
2019-05-17T11:17:32.349Z,12.90
2019-05-17T11:18:32.279Z,12.89
2019-05-17T11:19:32.320Z,12.82
2019-05-17T11:20:32.247Z,12.70
2019-05-17T11:21:32.154Z,12.65
2019-05-17T11:22:32.146Z,12.70
2019-05-17T11:23:32.082Z,12.75
2019-05-17T11:24:32.046Z,12.87
2019-05-17T11:25:32.038Z,12.97
2019-05-17T11:26:31.968Z,12.83
2019-05-17T11:27:31.953Z,12.78
2019-05-17T11:28:31.884Z,12.57
2019-05-17T11:29:31.843Z,12.79
2019-05-17T11:30:31.795Z,12.74
2019-05-17T11:31:31.761Z,12.77
2019-05-17T11:32:31.723Z,12.79
2019-05-17T11:33:31.700Z,12.78
2019-05-17T11:34:31.642Z,12.65
2019-05-17T11:35:31.624Z,12.65
2019-05-17T11:36:31.560Z,12.70
2019-05-17T11:37:31.523Z,12.52
2019-05-17T11:38:31.473Z,12.42
2019-05-17T11:39:31.491Z,12.47
2019-05-17T11:40:31.533Z,12.42
2019-05-17T11:41:31.378Z,12.56
2019-05-17T11:42:31.313Z,12.56
2019-05-17T11:43:31.298Z,12.57
2019-05-17T11:44:31.234Z,12.54
2019-05-17T11:45:32.708Z,12.53
2019-05-17T11:46:36.188Z,12.64
2019-05-17T11:47:31.146Z,12.62
2019-05-17T11:48:31.078Z,12.70
2019-05-17T11:49:31.041Z,12.74
2019-05-17T11:50:31.023Z,12.85
2019-05-17T11:51:30.946Z,12.78
2019-05-17T11:52:30.908Z,12.72
2019-05-17T11:53:30.872Z,12.74
2019-05-17T11:54:30.836Z,12.77
2019-05-17T11:55:30.793Z,12.78
2019-05-17T11:56:30.776Z,12.86
2019-05-17T11:57:30.706Z,12.87
2019-05-17T11:58:30.671Z,12.97
2019-05-17T11:59:30.630Z,12.92
2019-05-17T12:00:30.594Z,13.01
2019-05-17T12:01:30.553Z,13.07
2019-05-17T12:02:30.536Z,13.23
2019-05-17T12:03:30.487Z,13.30
2019-05-17T12:04:30.430Z,13.41
2019-05-17T12:05:30.388Z,13.52
2019-05-17T12:06:30.354Z,13.52
2019-05-17T12:07:30.330Z,13.66
2019-05-17T12:08:30.259Z,13.78
2019-05-17T12:09:37.264Z,13.89
2019-05-17T12:10:30.231Z,13.97
2019-05-17T12:11:30.149Z,13.95
2019-05-17T12:12:30.117Z,13.89
2019-05-17T12:13:30.092Z,13.67
2019-05-17T12:14:30.040Z,13.32
2019-05-17T12:15:43.655Z,13.19
2019-05-17T12:16:29.942Z,13.20
2019-05-17T12:17:29.908Z,13.05
2019-05-17T12:18:29.889Z,13.04
2019-05-17T12:19:29.820Z,13.05
2019-05-17T12:20:29.780Z,12.93
2019-05-17T12:21:29.744Z,12.85
2019-05-17T12:22:29.728Z,12.89
2019-05-17T12:23:29.754Z,12.86
2019-05-17T12:24:29.629Z,12.85
2019-05-17T12:25:29.595Z,12.85
2019-05-17T12:26:29.542Z,12.90
2019-05-17T12:27:29.503Z,12.93
2019-05-17T12:28:29.497Z,12.95
2019-05-17T12:29:29.430Z,13.03
2019-05-17T12:30:29.391Z,13.15
2019-05-17T12:31:29.341Z,13.19
2019-05-17T12:32:29.302Z,13.33
2019-05-17T12:33:29.265Z,13.29
2019-05-17T12:34:29.251Z,13.32
2019-05-17T12:35:29.189Z,13.32
2019-05-17T12:36:29.150Z,13.30
2019-05-17T12:37:29.131Z,13.25
2019-05-17T12:38:29.065Z,13.11
2019-05-17T12:39:29.027Z,13.20
2019-05-17T12:40:29.015Z,13.14
2019-05-17T12:41:28.947Z,13.23
2019-05-17T12:42:28.911Z,13.17
2019-05-17T12:43:28.883Z,13.08
2019-05-17T12:44:28.841Z,13.10
2019-05-17T12:45:28.825Z,13.19
2019-05-17T12:46:28.778Z,13.20
2019-05-17T12:47:28.717Z,13.26
2019-05-17T12:48:28.737Z,13.38
2019-05-17T12:49:28.630Z,13.51
2019-05-17T12:50:28.586Z,13.54
2019-05-17T12:51:28.577Z,13.77
2019-05-17T12:52:28.535Z,13.79
2019-05-17T12:53:28.473Z,13.77
2019-05-17T12:54:28.435Z,13.84
2019-05-17T12:55:28.402Z,13.79
2019-05-17T12:56:28.526Z,13.91
2019-05-17T12:57:28.338Z,13.95
2019-05-17T12:58:28.287Z,13.95
2019-05-17T12:59:28.232Z,14.02
2019-05-17T13:00:28.335Z,13.99
2019-05-17T13:01:28.156Z,14.03
2019-05-17T13:02:28.142Z,14.15
2019-05-17T13:03:28.071Z,14.15
2019-05-17T13:04:28.035Z,14.29
2019-05-17T13:05:27.992Z,14.32
2019-05-17T13:06:27.981Z,14.32
2019-05-17T13:07:28.042Z,14.24
2019-05-17T13:08:27.908Z,14.21
2019-05-17T13:09:28.089Z,14.29
2019-05-17T13:10:27.806Z,14.10
2019-05-17T13:11:27.756Z,13.97
2019-05-17T13:12:27.738Z,14.04
2019-05-17T13:13:27.706Z,13.92
2019-05-17T13:14:27.656Z,13.95
2019-05-17T13:15:27.837Z,14.04
2019-05-17T13:16:27.565Z,14.04
2019-05-17T13:17:27.528Z,14.18
2019-05-17T13:18:27.489Z,14.21
2019-05-17T13:19:27.459Z,14.24
2019-05-17T13:20:27.440Z,14.43
2019-05-17T13:21:27.372Z,14.57
2019-05-17T13:22:27.328Z,14.70
2019-05-17T13:23:27.292Z,14.69
2019-05-17T13:24:27.247Z,14.54
2019-05-17T13:25:27.211Z,14.61
2019-05-17T13:26:27.213Z,14.61
2019-05-17T13:27:27.352Z,14.35
2019-05-17T13:28:27.099Z,14.28
2019-05-17T13:29:27.183Z,14.39
2019-05-17T13:30:27.021Z,14.69
2019-05-17T13:31:26.992Z,14.86
2019-05-17T13:32:27.105Z,15.07
2019-05-17T13:33:29.167Z,15.13
2019-05-17T13:34:26.905Z,15.28
2019-05-17T13:35:26.845Z,15.35
2019-05-17T13:36:26.783Z,15.39
2019-05-17T13:37:26.747Z,15.36
2019-05-17T13:38:26.781Z,15.38
2019-05-17T13:39:52.559Z,15.29
2019-05-17T13:40:26.643Z,15.27
2019-05-17T13:41:26.619Z,15.16